Time;durP1;ratioP1;P1;durP2;ratioP2;P2;SDS_P1;SDS_P2;PMS_P1;PMS_P2;Temp;Humidity;BMP_temperature;BMP_pressure;BME280_temperature;BME280_humidity;BME280_pressure;Samples;Min_cycle;Max_cycle;Signal;HPM_P1;HPM_P2
2023/05/25 00:01:00;;;;;;;3.97;1.73;;;18.50;75.00;;;;;;5014203;28;20052;-32
2023/05/25 00:03:27;;;;;;;3.53;1.80;;;19.00;75.30;;;;;;5013437;28;20057;-32
2023/05/25 00:05:55;;;;;;;2.08;1.40;;;;;;;;;;5014000;28;20145;-30
2023/05/25 00:08:22;;;;;;;3.35;1.70;;;;;;;;;;5013427;28;20053;-32
2023/05/25 00:10:48;;;;;;;3.33;1.75;;;18.50;69.60;;;;;;5014009;28;20042;-32
2023/05/25 00:13:15;;;;;;;2.25;1.50;;;;;;;;;;5013625;28;20137;-31
2023/05/25 00:15:42;;;;;;;2.83;1.55;;;;;;;;;;5013690;28;20053;-31
2023/05/25 00:18:11;;;;;;;2.53;1.65;;;18.80;75.10;;;;;;5013975;28;20060;-32
2023/05/25 00:20:38;;;;;;;2.80;1.60;;;;;;;;;;5013735;28;20060;-30
2023/05/25 00:23:05;;;;;;;3.40;1.73;;;18.80;74.60;;;;;;5013668;28;20472;-32
2023/05/25 00:25:32;;;;;;;3.35;1.40;;;19.80;75.20;;;;;;5013602;28;20125;-32
2023/05/25 00:27:59;;;;;;;2.95;1.50;;;;;;;;;;5013031;28;20521;-32
2023/05/25 00:30:26;;;;;;;2.03;1.60;;;18.20;65.80;;;;;;5013267;28;20046;-32
2023/05/25 00:32:54;;;;;;;2.97;1.90;;;;;;;;;;5013165;28;20487;-30
2023/05/25 00:35:22;;;;;;;3.22;1.60;;;18.60;56.20;;;;;;5013605;28;20084;-30
2023/05/25 00:37:50;;;;;;;1.88;1.50;;;;;;;;;;5013138;28;20055;-31
2023/05/25 00:40:17;;;;;;;3.13;1.67;;;;;;;;;;5013596;28;20411;-30
2023/05/25 00:42:44;;;;;;;3.70;1.70;;;19.00;74.90;;;;;;5012677;28;20046;-32
2023/05/25 00:45:11;;;;;;;4.32;1.73;;;18.50;56.20;;;;;;5013288;28;20551;-32
2023/05/25 00:47:40;;;;;;;2.95;1.50;;;18.40;74.60;;;;;;5012944;28;20133;-32
2023/05/25 00:50:09;;;;;;;2.83;1.50;;;18.40;75.00;;;;;;5013135;28;20498;-32
2023/05/25 00:52:37;;;;;;;2.33;1.50;;;18.50;69.70;;;;;;5012971;28;20054;-32
2023/05/25 00:55:04;;;;;;;2.47;1.63;;;18.60;68.20;;;;;;5013113;28;20132;-32
2023/05/25 00:57:32;;;;;;;2.97;1.50;;;18.50;75.00;;;;;;5012729;28;20077;-32
2023/05/25 01:00:00;;;;;;;2.75;1.60;;;;;;;;;;5012957;28;20050;-31
2023/05/25 01:02:27;;;;;;;2.72;1.60;;;18.90;75.20;;;;;;5013013;28;20050;-32
2023/05/25 01:04:54;;;;;;;2.58;1.58;;;18.70;74.90;;;;;;5013040;28;20372;-32
2023/05/25 01:07:22;;;;;;;3.60;1.63;;;18.80;71.40;;;;;;5012673;28;20072;-32
2023/05/25 01:09:51;;;;;;;2.70;1.65;;;18.70;74.80;;;;;;5013067;28;20054;-32
2023/05/25 01:12:18;;;;;;;3.85;1.67;;;18.70;60.90;;;;;;5012080;28;20495;-32
2023/05/25 01:14:47;;;;;;;2.47;1.50;;;18.20;74.50;;;;;;5012774;28;20056;-32
2023/05/25 01:17:14;;;;;;;3.03;1.50;;;18.50;75.20;;;;;;5012866;28;20050;-32
2023/05/25 01:19:44;;;;;;;3.33;1.95;;;;;;;;;;5012649;28;20065;-32
2023/05/25 01:22:15;;;;;;;3.25;1.88;;;18.50;56.30;;;;;;5012490;28;20050;-32
2023/05/25 01:24:44;;;;;;;2.75;1.58;;;18.50;56.30;;;;;;5012528;28;20056;-31
2023/05/25 01:27:13;;;;;;;1.88;1.48;;;18.50;56.30;;;;;;5012193;28;20049;-31
2023/05/25 01:29:41;;;;;;;2.53;1.67;;;;;;;;;;5012374;28;20251;-31
2023/05/25 01:32:07;;;;;;;2.83;1.60;;;17.70;74.80;;;;;;5012518;28;20050;-32
2023/05/25 01:34:34;;;;;;;1.88;1.40;;;;;;;;;;5012177;28;20491;-32
2023/05/25 01:37:01;;;;;;;2.47;1.60;;;18.30;75.10;;;;;;5012252;28;20124;-32
2023/05/25 01:39:29;;;;;;;2.88;1.50;;;18.60;75.30;;;;;;5011800;28;20128;-32
2023/05/25 01:41:56;;;;;;;2.85;1.65;;;18.10;70.40;;;;;;5012347;28;20411;-32
2023/05/25 01:44:23;;;;;;;2.55;1.60;;;18.60;65.80;;;;;;5011709;28;20507;-32
2023/05/25 01:46:52;;;;;;;2.40;1.63;;;18.60;75.00;;;;;;5012464;28;20049;-32
2023/05/25 01:49:21;;;;;;;3.30;1.63;;;18.40;56.30;;;;;;5012251;28;20060;-31
2023/05/25 01:51:54;;;;;;;2.88;1.70;;;18.40;60.50;;;;;;5012076;28;20104;-32
2023/05/25 01:54:21;;;;;;;2.35;1.48;;;18.40;75.20;;;;;;5011504;28;20112;-32
2023/05/25 01:56:49;;;;;;;2.92;1.75;;;18.10;74.70;;;;;;5012381;28;20050;-32
2023/05/25 01:59:18;;;;;;;2.20;1.50;;;18.30;74.70;;;;;;5012192;28;20125;-32
2023/05/25 02:01:45;;;;;;;2.63;1.60;;;19.00;75.30;;;;;;5011880;28;20509;-32
2023/05/25 02:04:12;;;;;;;2.95;1.65;;;18.30;68.10;;;;;;5011866;28;20133;-32
2023/05/25 02:06:38;;;;;;;2.80;1.60;;;18.10;75.10;;;;;;5011994;28;20621;-32
2023/05/25 02:09:05;;;;;;;2.35;1.60;;;17.20;74.70;;;;;;5011823;28;20132;-32
2023/05/25 02:11:32;;;;;;;2.28;1.77;;;18.50;75.20;;;;;;5011812;28;20442;-32
2023/05/25 02:14:01;;;;;;;4.43;1.73;;;;;;;;;;5011788;28;20060;-32
2023/05/25 02:16:28;;;;;;;2.45;1.60;;;;;;;;;;5011812;28;20333;-32
2023/05/25 02:18:56;;;;;;;3.33;1.80;;;18.70;73.50;;;;;;5011677;28;20581;-32
2023/05/25 02:21:24;;;;;;;2.90;1.65;;;;;;;;;;5011308;28;20117;-32
2023/05/25 02:23:50;;;;;;;2.42;1.60;;;18.70;61.50;;;;;;5011162;28;20513;-32
2023/05/25 02:26:17;;;;;;;3.25;1.70;;;17.70;74.50;;;;;;5011525;28;20049;-32
2023/05/25 02:28:44;;;;;;;2.78;2.00;;;18.50;75.10;;;;;;4994541;28;20064;-32
2023/05/25 02:31:12;;;;;;;3.92;1.85;;;18.60;65.60;;;;;;5013415;28;20047;-32
2023/05/25 02:33:40;;;;;;;3.35;1.80;;;19.30;72.40;;;;;;5017854;28;20060;-32
2023/05/25 02:36:07;;;;;;;2.85;1.67;;;18.30;56.40;;;;;;5017448;28;20132;-31
2023/05/25 02:38:34;;;;;;;2.42;1.67;;;18.60;75.60;;;;;;5018576;28;20133;-32
2023/05/25 02:41:01;;;;;;;2.72;1.75;;;;;;;;;;5018242;28;20129;-31
2023/05/25 02:43:27;;;;;;;3.22;1.60;;;18.90;75.30;;;;;;5017579;28;20129;-32
2023/05/25 02:45:54;;;;;;;2.40;1.45;;;;;;;;;;5018049;28;20046;-32
2023/05/25 02:48:22;;;;;;;2.92;1.52;;;18.30;56.40;;;;;;5018036;28;20046;-32
2023/05/25 02:50:49;;;;;;;3.58;1.70;;;18.30;66.80;;;;;;5018049;28;20129;-32
2023/05/25 02:53:16;;;;;;;2.95;1.80;;;18.30;56.40;;;;;;5018049;28;20108;-32
2023/05/25 02:55:43;;;;;;;3.40;1.63;;;18.20;75.00;;;;;;5017705;28;20062;-32
2023/05/25 02:58:10;;;;;;;2.75;1.77;;;18.90;75.40;;;;;;5018160;28;20458;-32
2023/05/25 03:00:38;;;;;;;2.95;1.77;;;17.70;75.80;;;;;;5017889;28;20052;-32
2023/05/25 03:03:04;;;;;;;2.03;1.55;;;17.30;75.00;;;;;;5017742;28;20519;-32
2023/05/25 03:05:34;;;;;;;3.65;2.03;;;18.20;56.40;;;;;;5017371;28;20049;-31
2023/05/25 03:08:01;;;;;;;2.75;1.83;;;;;;;;;;5018307;28;20057;-32
2023/05/25 03:10:28;;;;;;;3.22;1.70;;;;;;;;;;5017966;28;20053;-32
2023/05/25 03:12:55;;;;;;;2.97;1.80;;;17.90;76.00;;;;;;5017675;28;20041;-32
2023/05/25 03:15:22;;;;;;;2.40;1.70;;;;;;;;;;5017212;28;20559;-31
2023/05/25 03:17:49;;;;;;;2.58;1.63;;;17.40;75.30;;;;;;5017829;28;20499;-32
2023/05/25 03:20:16;;;;;;;2.60;1.63;;;17.90;61.00;;;;;;5017792;28;20521;-32
2023/05/25 03:22:44;;;;;;;2.97;1.70;;;18.40;75.50;;;;;;5017201;28;20058;-32
2023/05/25 03:25:11;;;;;;;2.95;1.63;;;17.80;75.60;;;;;;5017839;28;20053;-32
2023/05/25 03:27:39;;;;;;;3.58;1.70;;;;;;;;;;5017573;28;20484;-32
2023/05/25 03:30:07;;;;;;;3.00;1.50;;;18.20;56.40;;;;;;5017717;28;20050;-32
2023/05/25 03:32:35;;;;;;;2.63;1.60;;;;;;;;;;5017667;28;20046;-32
2023/05/25 03:35:02;;;;;;;2.63;1.50;;;;;;;;;;5017526;28;20388;-32
2023/05/25 03:37:29;;;;;;;4.63;1.88;;;;;;;;;;5016822;28;20128;-32
2023/05/25 03:39:57;;;;;;;2.28;1.60;;;18.30;76.00;;;;;;5017680;28;20609;-32
2023/05/25 03:42:24;;;;;;;4.65;2.10;;;;;;;;;;5016057;28;20148;-32
2023/05/25 03:44:51;;;;;;;2.75;1.50;;;;;;;;;;5014162;28;20104;-32
2023/05/25 03:47:18;;;;;;;3.22;1.90;;;18.00;68.10;;;;;;5014407;28;20046;-31
2023/05/25 03:49:44;;;;;;;3.35;1.80;;;17.30;75.00;;;;;;5014186;28;20060;-32
2023/05/25 03:52:11;;;;;;;2.65;1.70;;;18.40;64.90;;;;;;5014139;28;20046;-31
2023/05/25 03:54:38;;;;;;;3.17;1.70;;;;;;;;;;5014585;28;20080;-32
2023/05/25 03:57:06;;;;;;;2.60;1.80;;;18.10;56.40;;;;;;5014288;28;20053;-31
2023/05/25 03:59:33;;;;;;;3.33;1.77;;;;;;;;;;5014132;28;20097;-31
2023/05/25 04:02:00;;;;;;;2.40;1.63;;;17.80;75.50;;;;;;5013960;28;20044;-32
2023/05/25 04:04:28;;;;;;;2.53;1.77;;;;;;;;;;5013831;28;20085;-31
2023/05/25 04:06:55;;;;;;;2.63;1.67;;;;;;;;;;5014186;28;20466;-31
2023/05/25 04:09:22;;;;;;;2.65;1.52;;;;;;;;;;5013957;28;20129;-32
2023/05/25 04:11:49;;;;;;;2.60;1.60;;;18.50;76.00;;;;;;5013694;28;20046;-32
2023/05/25 04:14:19;;;;;;;4.00;1.70;;;18.10;56.50;;;;;;5013434;28;20505;-31
2023/05/25 04:16:46;;;;;;;3.00;1.67;;;19.00;66.40;;;;;;5013914;28;20497;-32
2023/05/25 04:19:12;;;;;;;4.18;1.77;;;17.90;74.90;;;;;;5013801;28;20233;-32
2023/05/25 04:21:39;;;;;;;2.38;1.70;;;17.80;75.40;;;;;;5013550;28;20046;-32
2023/05/25 04:24:07;;;;;;;3.03;1.88;;;18.00;56.50;;;;;;4996010;28;20061;-32
2023/05/25 04:26:34;;;;;;;3.03;1.67;;;;;;;;;;5013778;28;20052;-30
2023/05/25 04:29:01;;;;;;;2.80;1.80;;;;;;;;;;5013614;28;20137;-32
2023/05/25 04:31:30;;;;;;;2.60;1.63;;;18.20;57.50;;;;;;5013312;28;20046;-32
2023/05/25 04:33:57;;;;;;;2.67;1.83;;;18.20;72.90;;;;;;5013073;28;20140;-32
2023/05/25 04:36:24;;;;;;;3.55;1.90;;;;;;;;;;5012995;28;20042;-31
2023/05/25 04:38:53;;;;;;;2.55;1.60;;;;;;;;;;5013487;28;20161;-32
2023/05/25 04:41:20;;;;;;;3.17;1.70;;;;;;;;;;5013678;28;20052;-32
2023/05/25 04:43:49;;;;;;;2.55;1.75;;;18.60;75.80;;;;;;5013225;28;20052;-32
2023/05/25 04:46:16;;;;;;;3.90;1.90;;;18.40;75.60;;;;;;5013517;28;20123;-32
2023/05/25 04:48:44;;;;;;;4.57;2.00;;;17.80;62.40;;;;;;5013226;28;20052;-32
2023/05/25 04:51:11;;;;;;;2.53;1.75;;;17.70;64.20;;;;;;5013103;28;20050;-32
2023/05/25 04:53:38;;;;;;;3.28;1.88;;;18.30;75.70;;;;;;5012779;28;20136;-32
2023/05/25 04:56:05;;;;;;;3.30;1.60;;;;;;;;;;5013201;28;20046;-32
2023/05/25 04:58:32;;;;;;;3.15;1.80;;;17.50;67.50;;;;;;5013086;28;20123;-32
2023/05/25 05:00:59;;;;;;;2.53;1.73;;;18.90;57.10;;;;;;5013292;28;20057;-32
2023/05/25 05:03:26;;;;;;;3.65;1.90;;;19.00;76.20;;;;;;5012369;28;20129;-32
2023/05/25 05:05:54;;;;;;;3.58;2.00;;;17.50;75.10;;;;;;5013247;28;20081;-32
2023/05/25 05:08:21;;;;;;;3.83;1.70;;;;;;;;;;5011006;28;20057;-33
2023/05/25 05:10:48;;;;;;;3.08;1.80;;;18.30;73.90;;;;;;5012516;28;20491;-31
2023/05/25 05:13:15;;;;;;;4.32;1.70;;;17.60;75.00;;;;;;5013280;28;20081;-29
2023/05/25 05:15:42;;;;;;;3.63;1.80;;;;;;;;;;5012891;28;20135;-29
2023/05/25 05:18:08;;;;;;;3.75;1.88;;;17.00;68.30;;;;;;5013125;28;20076;-29
2023/05/25 05:20:35;;;;;;;3.30;1.67;;;17.80;75.30;;;;;;5012855;28;20088;-29
2023/05/25 05:23:03;;;;;;;3.40;1.63;;;18.40;69.00;;;;;;5012801;28;20081;-29
2023/05/25 05:25:30;;;;;;;3.20;1.80;;;17.50;66.60;;;;;;5012861;28;20049;-29
2023/05/25 05:27:57;;;;;;;3.10;1.70;;;18.10;75.50;;;;;;5012785;28;20137;-29
2023/05/25 05:30:24;;;;;;;3.53;2.05;;;;;;;;;;5012903;28;20396;-29
2023/05/25 05:32:50;;;;;;;4.78;2.30;;;19.00;76.30;;;;;;5011905;28;20402;-29
2023/05/25 05:35:17;;;;;;;2.25;1.60;;;18.30;76.10;;;;;;5012927;28;20129;-29
2023/05/25 05:37:45;;;;;;;3.20;1.75;;;;;;;;;;5012436;28;20049;-30
2023/05/25 05:40:14;;;;;;;3.05;1.73;;;17.80;56.60;;;;;;5012887;28;20058;-29
2023/05/25 05:42:41;;;;;;;3.17;1.90;;;19.10;75.30;;;;;;5012444;28;20078;-29
2023/05/25 05:45:08;;;;;;;2.45;1.60;;;18.10;75.90;;;;;;5012418;28;20392;-29
2023/05/25 05:47:35;;;;;;;3.45;1.65;;;17.80;75.30;;;;;;5012213;28;20092;-29
2023/05/25 05:50:02;;;;;;;2.95;1.75;;;16.80;75.30;;;;;;5012500;28;20141;-29
2023/05/25 05:52:29;;;;;;;2.85;1.67;;;18.00;59.30;;;;;;5012457;28;20069;-30
2023/05/25 05:54:55;;;;;;;3.15;1.80;;;16.70;74.80;;;;;;5012186;28;20481;-30
2023/05/25 05:57:24;;;;;;;2.47;1.58;;;17.90;75.80;;;;;;5011896;28;20056;-29
2023/05/25 05:59:51;;;;;;;3.13;1.77;;;;;;;;;;5012054;28;20049;-30
2023/05/25 06:02:17;;;;;;;2.72;1.70;;;17.70;75.40;;;;;;5011616;28;20056;-29
2023/05/25 06:04:44;;;;;;;2.90;1.90;;;18.20;61.00;;;;;;5012199;28;20128;-30
2023/05/25 06:07:11;;;;;;;2.60;1.52;;;;;;;;;;5011484;28;20070;-29
2023/05/25 06:09:38;;;;;;;2.70;1.50;;;17.00;75.10;;;;;;5012318;28;20050;-29
2023/05/25 06:12:05;;;;;;;3.20;1.90;;;17.80;75.40;;;;;;5012145;28;20614;-29
2023/05/25 06:14:33;;;;;;;3.53;1.80;;;17.90;75.30;;;;;;5012068;28;20140;-29
2023/05/25 06:17:00;;;;;;;5.38;1.75;;;18.80;76.20;;;;;;5011768;28;20141;-29
2023/05/25 06:19:27;;;;;;;3.00;1.55;;;;;;;;;;5012243;28;20129;-31
2023/05/25 06:21:54;;;;;;;3.90;1.60;;;18.20;75.20;;;;;;5012171;28;20135;-30
2023/05/25 06:24:21;;;;;;;3.13;1.60;;;17.40;75.10;;;;;;5011803;28;20049;-29
2023/05/25 06:26:48;;;;;;;3.03;1.65;;;18.50;69.40;;;;;;5012409;28;20045;-29
2023/05/25 06:29:14;;;;;;;2.63;1.55;;;17.50;74.80;;;;;;5010798;28;20081;-29
2023/05/25 06:31:43;;;;;;;4.03;1.60;;;18.40;74.70;;;;;;5002025;28;20101;-29
2023/05/25 06:34:09;;;;;;;2.03;1.20;;;18.80;75.10;;;;;;5003602;28;20137;-29
2023/05/25 06:36:36;;;;;;;2.30;1.60;;;18.50;60.10;;;;;;5002675;28;20044;-29
2023/05/25 06:39:03;;;;;;;3.17;1.70;;;19.30;74.50;;;;;;5001784;28;20084;-29
2023/05/25 06:41:30;;;;;;;3.28;1.45;;;;;;;;;;5002241;28;20125;-31
2023/05/25 06:43:57;;;;;;;2.72;1.60;;;;;;;;;;4997787;28;20049;-29
2023/05/25 06:46:24;;;;;;;2.30;1.30;;;;;;;;;;5011863;28;20128;-31
2023/05/25 06:48:52;;;;;;;2.33;1.52;;;19.20;73.70;;;;;;5011784;28;20133;-29
2023/05/25 06:51:19;;;;;;;2.75;1.45;;;19.50;74.00;;;;;;5011912;28;20128;-29
2023/05/25 06:53:46;;;;;;;2.78;1.50;;;;;;;;;;5011266;28;20128;-31
2023/05/25 06:56:13;;;;;;;3.15;1.55;;;20.10;73.60;;;;;;5011636;28;20056;-29
2023/05/25 06:58:40;;;;;;;3.13;1.50;;;19.70;73.70;;;;;;5011208;28;20144;-29
2023/05/25 07:01:07;;;;;;;3.03;1.55;;;19.60;60.10;;;;;;5011105;28;20478;-30
2023/05/25 07:03:33;;;;;;;3.35;1.70;;;20.10;73.40;;;;;;5011506;28;20128;-30
2023/05/25 07:06:01;;;;;;;2.75;1.40;;;19.90;57.30;;;;;;5010268;28;20111;-30
2023/05/25 07:08:28;;;;;;;2.30;1.40;;;20.00;72.80;;;;;;5010672;28;20132;-29
2023/05/25 07:10:55;;;;;;;3.25;1.50;;;19.60;54.30;;;;;;5010794;28;20049;-29
2023/05/25 07:13:22;;;;;;;2.58;1.40;;;20.10;73.00;;;;;;5011042;28;20128;-29
2023/05/25 07:15:49;;;;;;;2.45;1.35;;;19.90;72.00;;;;;;5011164;28;20526;-30
2023/05/25 07:18:15;;;;;;;2.95;1.50;;;20.30;66.00;;;;;;5013694;28;20132;-30
2023/05/25 07:20:42;;;;;;;2.22;1.20;;;;;;;;;;5015272;28;20056;-33
2023/05/25 07:23:10;;;;;;;3.53;1.67;;;20.30;54.10;;;;;;5014790;28;20050;-31
2023/05/25 07:25:37;;;;;;;2.80;1.50;;;20.40;54.10;;;;;;5014830;28;20563;-30
2023/05/25 07:28:04;;;;;;;2.17;1.58;;;20.50;72.70;;;;;;5015271;28;20064;-29
2023/05/25 07:30:31;;;;;;;6.03;1.70;;;20.90;72.10;;;;;;5014665;28;20104;-29
2023/05/25 07:32:58;;;;;;;3.50;1.60;;;20.30;58.60;;;;;;5014536;28;20505;-29
2023/05/25 07:35:24;;;;;;;4.45;1.58;;;20.70;68.80;;;;;;5014846;28;20129;-29
2023/05/25 07:37:58;;;;;;;2.63;1.50;;;20.90;71.70;;;;;;5009199;28;20070;-29
2023/05/25 07:40:26;;;;;;;2.50;1.50;;;20.40;71.50;;;;;;4995463;28;20134;-30
2023/05/25 07:42:53;;;;;;;3.53;1.40;;;20.80;66.00;;;;;;5010145;28;20056;-30
2023/05/25 07:45:19;;;;;;;3.65;1.55;;;20.60;70.70;;;;;;5014939;28;20053;-29
2023/05/25 07:47:46;;;;;;;3.05;1.60;;;21.00;56.70;;;;;;5005108;28;20050;-30
2023/05/25 07:50:13;;;;;;;4.00;1.55;;;20.70;71.50;;;;;;4995229;28;20060;-29
2023/05/25 07:52:40;;;;;;;4.28;1.60;;;20.10;70.30;;;;;;4999659;28;20052;-29
2023/05/25 07:55:07;;;;;;;3.88;1.80;;;20.70;65.80;;;;;;5013925;28;20049;-30
2023/05/25 07:57:35;;;;;;;4.45;1.80;;;21.00;70.70;;;;;;5014221;28;20452;-29
2023/05/25 08:00:03;;;;;;;2.67;1.52;;;20.80;67.60;;;;;;5011126;28;20391;-29
2023/05/25 08:02:31;;;;;;;3.53;1.65;;;;;;;;;;5003677;28;20068;-31
2023/05/25 08:04:58;;;;;;;4.93;1.50;;;20.20;70.40;;;;;;5013605;28;20144;-29
2023/05/25 08:07:25;;;;;;;3.47;1.58;;;;;;;;;;5010836;28;20881;-29
2023/05/25 08:09:52;;;;;;;2.85;1.60;;;21.30;71.50;;;;;;5013838;28;20076;-29
2023/05/25 08:12:19;;;;;;;3.97;1.65;;;;;;;;;;5013597;28;20048;-30
2023/05/25 08:14:47;;;;;;;2.85;1.50;;;20.40;65.30;;;;;;5012967;28;20120;-30
2023/05/25 08:17:14;;;;;;;4.55;1.90;;;20.70;70.90;;;;;;5011166;28;20056;-29
2023/05/25 08:19:41;;;;;;;2.65;1.33;;;20.80;71.80;;;;;;5013125;28;20111;-29
2023/05/25 08:22:07;;;;;;;3.15;1.50;;;20.70;58.60;;;;;;5012983;28;20488;-29
2023/05/25 08:24:34;;;;;;;2.90;1.60;;;20.90;59.10;;;;;;5012715;28;20056;-30
2023/05/25 08:27:01;;;;;;;3.67;1.77;;;;;;;;;;5013123;28;20057;-29
2023/05/25 08:29:28;;;;;;;2.67;1.40;;;22.20;71.20;;;;;;5012733;28;20133;-30
2023/05/25 08:31:56;;;;;;;3.00;1.70;;;19.80;70.60;;;;;;5012564;28;20129;-29
2023/05/25 08:34:23;;;;;;;2.95;1.45;;;21.30;71.10;;;;;;5010408;28;20407;-29
2023/05/25 08:36:50;;;;;;;4.38;1.35;;;;;;;;;;5004466;28;20125;-31
2023/05/25 08:39:17;;;;;;;4.32;1.70;;;20.90;71.90;;;;;;5002496;28;20050;-29
2023/05/25 08:41:44;;;;;;;3.72;1.80;;;20.70;64.90;;;;;;4993932;28;20054;-30
2023/05/25 08:44:13;;;;;;;5.68;1.67;;;20.70;71.40;;;;;;4995421;28;20509;-29
2023/05/25 08:46:40;;;;;;;3.22;1.70;;;;;;;;;;5011020;28;20093;-31
2023/05/25 08:49:10;;;;;;;3.58;1.60;;;21.00;53.50;;;;;;5011293;28;20072;-30
2023/05/25 08:51:38;;;;;;;4.47;1.92;;;20.90;71.20;;;;;;5009887;28;20467;-29
2023/05/25 08:54:08;;;;;;;4.70;1.85;;;21.00;71.50;;;;;;5011429;28;20165;-29
2023/05/25 08:56:39;;;;;;;3.17;1.50;;;21.20;71.00;;;;;;5012537;28;20054;-29
2023/05/25 08:59:12;;;;;;;5.40;1.92;;;21.10;56.70;;;;;;5012832;28;20053;-30
2023/05/25 09:01:40;;;;;;;3.25;1.70;;;21.10;71.00;;;;;;5013628;28;20410;-29
2023/05/25 09:04:08;;;;;;;4.68;2.58;;;20.80;71.70;;;;;;5012957;28;20554;-30
2023/05/25 09:06:37;;;;;;;5.20;1.80;;;21.10;71.20;;;;;;5013349;28;20081;-29
2023/05/25 09:09:04;;;;;;;5.30;1.88;;;21.10;71.80;;;;;;5012262;28;20543;-29
2023/05/25 09:11:31;;;;;;;3.28;1.75;;;;;;;;;;5013244;28;20141;-30
2023/05/25 09:13:57;;;;;;;5.07;2.47;;;20.60;71.10;;;;;;5012614;28;20075;-29
2023/05/25 09:16:24;;;;;;;7.68;2.10;;;20.70;71.40;;;;;;5012949;28;20133;-29
2023/05/25 09:18:51;;;;;;;5.00;1.85;;;;;;;;;;5013017;28;20058;-29
2023/05/25 09:21:20;;;;;;;4.18;1.95;;;20.50;71.10;;;;;;5012987;28;20133;-29
2023/05/25 09:23:46;;;;;;;7.25;2.47;;;20.50;71.40;;;;;;5005776;28;20042;-29
2023/05/25 09:26:13;;;;;;;5.93;2.25;;;;;;;;;;5012538;28;20477;-29
2023/05/25 09:28:45;;;;;;;7.00;2.22;;;20.30;70.70;;;;;;5012962;28;20100;-29
2023/05/25 09:31:12;;;;;;;6.35;2.17;;;20.40;70.40;;;;;;5012636;28;20053;-29
2023/05/25 09:33:39;;;;;;;5.03;2.38;;;20.40;70.70;;;;;;5012617;28;20128;-29
2023/05/25 09:36:06;;;;;;;6.00;2.20;;;;;;;;;;5012059;28;20060;-29
2023/05/25 09:38:34;;;;;;;6.88;2.10;;;21.80;71.70;;;;;;5012401;28;20514;-29
2023/05/25 09:41:01;;;;;;;6.38;2.42;;;21.20;71.30;;;;;;5011575;28;20057;-29
2023/05/25 09:43:28;;;;;;;7.70;2.67;;;;;;;;;;5012317;28;20045;-30
2023/05/25 09:45:54;;;;;;;6.00;2.35;;;19.70;70.50;;;;;;5012634;28;20049;-29
2023/05/25 09:48:21;;;;;;;7.85;2.83;;;20.30;71.90;;;;;;5012572;28;20104;-29
2023/05/25 09:50:48;;;;;;;5.95;1.95;;;20.50;69.60;;;;;;5012186;28;20108;-29
2023/05/25 09:53:15;;;;;;;5.50;2.40;;;20.50;71.00;;;;;;5011793;28;20137;-29
2023/05/25 09:55:44;;;;;;;5.45;2.13;;;20.50;53.50;;;;;;5011919;28;20582;-30
2023/05/25 09:58:12;;;;;;;6.35;2.30;;;19.80;69.90;;;;;;5012512;28;20049;-30
2023/05/25 10:00:38;;;;;;;7.45;2.60;;;20.60;67.70;;;;;;5012480;28;20475;-30
2023/05/25 10:03:06;;;;;;;5.43;2.40;;;21.30;71.40;;;;;;5011875;28;20414;-30
2023/05/25 10:05:33;;;;;;;5.00;2.50;;;20.20;71.50;;;;;;5012127;28;20078;-29
2023/05/25 10:08:00;;;;;;;6.43;2.35;;;21.80;71.50;;;;;;5011729;28;20056;-30
2023/05/25 10:10:27;;;;;;;5.70;2.35;;;20.70;62.50;;;;;;5012172;28;20590;-30
2023/05/25 10:12:55;;;;;;;6.90;2.60;;;21.40;71.20;;;;;;5011468;28;20042;-30
2023/05/25 10:15:21;;;;;;;4.65;2.33;;;20.70;56.40;;;;;;5008657;28;20060;-30
2023/05/25 10:17:52;;;;;;;5.45;2.25;;;20.70;71.90;;;;;;5002865;28;20112;-30
2023/05/25 10:20:19;;;;;;;5.63;2.08;;;20.60;65.50;;;;;;5003640;28;20048;-30
2023/05/25 10:22:48;;;;;;;10.32;2.67;;;20.50;53.40;;;;;;5010594;28;20124;-31
2023/05/25 10:25:16;;;;;;;5.63;2.38;;;19.80;71.10;;;;;;5011536;28;20125;-30
2023/05/25 10:27:52;;;;;;;6.32;2.55;;;20.20;63.10;;;;;;5008865;28;20132;-30
2023/05/25 10:30:20;;;;;;;6.05;2.30;;;20.20;59.30;;;;;;5009421;28;20140;-30
2023/05/25 10:32:47;;;;;;;7.55;2.10;;;20.30;63.20;;;;;;5008214;28;20451;-30
2023/05/25 10:35:14;;;;;;;5.68;2.30;;;21.00;71.50;;;;;;5011268;28;20057;-29
2023/05/25 10:37:41;;;;;;;5.00;2.25;;;;;;;;;;5007805;28;20089;-30
2023/05/25 10:40:08;;;;;;;6.78;2.45;;;20.70;71.40;;;;;;5011299;28;20060;-29
2023/05/25 10:42:36;;;;;;;6.82;1.90;;;;;;;;;;5011360;28;20140;-30
2023/05/25 10:45:03;;;;;;;5.13;2.55;;;19.90;71.30;;;;;;5010719;28;20038;-30
2023/05/25 10:47:31;;;;;;;5.65;2.33;;;20.70;57.00;;;;;;5010917;28;20136;-29
2023/05/25 10:50:01;;;;;;;6.68;2.13;;;20.40;54.90;;;;;;5011950;28;20257;-30
2023/05/25 10:52:28;;;;;;;6.35;2.40;;;20.40;67.00;;;;;;5012725;28;20495;-30
2023/05/25 10:54:56;;;;;;;7.25;2.53;;;20.50;72.30;;;;;;5015270;28;20046;-29
2023/05/25 10:57:23;;;;;;;5.78;2.30;;;20.70;71.50;;;;;;5015872;28;20128;-30
2023/05/25 10:59:50;;;;;;;5.45;2.22;;;;;;;;;;5015420;28;20121;-29
2023/05/25 11:02:18;;;;;;;5.22;2.50;;;20.40;71.40;;;;;;5009298;28;20078;-30
2023/05/25 11:04:48;;;;;;;5.15;2.40;;;20.20;64.40;;;;;;5007251;28;20042;-30
2023/05/25 11:07:15;;;;;;;5.35;2.42;;;20.50;72.00;;;;;;5012655;28;20060;-29
2023/05/25 11:09:45;;;;;;;4.97;2.00;;;;;;;;;;5015642;28;20054;-31
2023/05/25 11:12:19;;;;;;;6.15;2.33;;;20.40;54.00;;;;;;4996757;28;20154;-31
2023/05/25 11:15:06;;;;;;;7.38;2.83;;;20.50;54.00;;;;;;5003919;28;20053;-32
2023/05/25 11:17:35;;;;;;;8.73;3.22;;;20.70;65.60;;;;;;5000584;28;20129;-30
2023/05/25 11:20:05;;;;;;;8.07;3.88;;;21.50;72.20;;;;;;5010186;28;20050;-30
2023/05/25 11:22:32;;;;;;;10.70;4.20;;;20.90;71.80;;;;;;4995389;28;20050;-30
2023/05/25 11:24:59;;;;;;;8.45;4.00;;;20.50;55.10;;;;;;5006149;28;20050;-30
2023/05/25 11:27:27;;;;;;;11.95;3.83;;;21.00;72.30;;;;;;5014541;28;20073;-30
2023/05/25 11:29:55;;;;;;;8.73;3.75;;;20.20;71.60;;;;;;5014641;28;20077;-30
2023/05/25 11:32:22;;;;;;;7.57;3.85;;;20.30;68.00;;;;;;5012022;28;20537;-30
2023/05/25 11:34:49;;;;;;;10.68;4.03;;;20.10;71.50;;;;;;5013034;28;20126;-30
2023/05/25 11:37:19;;;;;;;7.88;3.85;;;20.40;54.20;;;;;;5011367;28;20057;-30
2023/05/25 11:39:47;;;;;;;9.75;3.63;;;20.00;71.60;;;;;;5011693;28;20125;-30
2023/05/25 11:42:14;;;;;;;8.10;3.30;;;20.50;72.50;;;;;;5014131;28;20050;-30
2023/05/25 11:44:41;;;;;;;11.50;3.70;;;21.10;65.90;;;;;;5014467;28;20046;-30
2023/05/25 11:47:08;;;;;;;9.45;3.22;;;21.00;59.30;;;;;;5014389;28;20491;-30
2023/05/25 11:49:35;;;;;;;8.90;3.15;;;20.20;71.60;;;;;;5012271;28;20096;-30
2023/05/25 11:52:05;;;;;;;11.38;3.65;;;19.50;65.20;;;;;;5014506;28;20545;-30
2023/05/25 11:54:33;;;;;;;8.65;3.75;;;20.40;54.30;;;;;;5014591;28;20137;-32
2023/05/25 11:57:00;;;;;;;7.72;3.10;;;;;;;;;;5014374;28;20061;-31
2023/05/25 11:59:27;;;;;;;10.85;3.38;;;20.50;71.80;;;;;;5014651;28;20136;-30
2023/05/25 12:01:58;;;;;;;9.02;3.60;;;20.40;59.70;;;;;;5014299;28;20454;-30
2023/05/25 12:04:25;;;;;;;8.05;2.80;;;20.20;72.20;;;;;;5013060;28;20133;-30
2023/05/25 12:06:52;;;;;;;6.93;2.90;;;;;;;;;;5014104;28;20591;-31
2023/05/25 12:09:22;;;;;;;6.95;2.97;;;20.40;54.40;;;;;;5014400;28;20050;-32
2023/05/25 12:11:50;;;;;;;7.20;2.80;;;20.80;66.50;;;;;;5013793;28;20048;-30
2023/05/25 12:14:16;;;;;;;6.93;3.00;;;20.60;66.80;;;;;;5010749;28;20050;-30
2023/05/25 12:16:43;;;;;;;6.95;2.83;;;;;;;;;;5014352;28;20081;-33
2023/05/25 12:19:11;;;;;;;9.95;2.80;;;;;;;;;;5013940;28;20136;-30
2023/05/25 12:21:38;;;;;;;6.28;2.70;;;20.50;71.90;;;;;;5013870;28;20418;-30
2023/05/25 12:24:05;;;;;;;6.35;2.83;;;;;;;;;;5013487;28;20530;-31
2023/05/25 12:26:32;;;;;;;7.80;2.20;;;20.70;72.70;;;;;;5014204;28;20616;-30
2023/05/25 12:29:01;;;;;;;6.40;2.78;;;20.40;54.20;;;;;;5012955;28;20411;-32
2023/05/25 12:31:28;;;;;;;6.78;2.50;;;19.80;71.80;;;;;;5011124;28;20085;-30
2023/05/25 12:34:07;;;;;;;4.20;2.22;;;20.60;56.30;;;;;;5012058;28;20133;-31
2023/05/25 12:36:42;;;;;;;5.82;2.67;;;20.30;72.60;;;;;;5012204;28;20136;-30
2023/05/25 12:39:10;;;;;;;8.02;2.92;;;20.60;72.60;;;;;;5013018;28;20050;-30
2023/05/25 12:41:47;;;;;;;6.40;2.58;;;20.40;54.20;;;;;;5013523;28;20053;-31
2023/05/25 12:44:20;;;;;;;9.65;2.65;;;20.00;68.40;;;;;;5012303;28;20088;-30
2023/05/25 12:46:47;;;;;;;7.28;3.28;;;;;;;;;;5013083;28;20463;-31
2023/05/25 12:49:27;;;;;;;8.43;2.63;;;21.10;59.90;;;;;;5012476;28;20148;-30
2023/05/25 12:51:54;;;;;;;6.40;2.50;;;20.30;65.70;;;;;;5011561;28;20138;-30
2023/05/25 12:54:43;;;;;;;8.63;2.78;;;20.20;71.90;;;;;;5013082;28;20088;-30
2023/05/25 12:57:12;;;;;;;7.55;2.42;;;20.90;72.80;;;;;;5013268;28;20495;-30
2023/05/25 12:59:41;;;;;;;6.75;2.58;;;20.40;72.40;;;;;;5013123;28;20133;-30
2023/05/25 13:02:08;;;;;;;7.38;2.25;;;;;;;;;;5013140;28;20056;-32
2023/05/25 13:04:35;;;;;;;8.63;2.75;;;20.40;64.70;;;;;;5012932;28;20154;-30
2023/05/25 13:07:01;;;;;;;7.05;2.60;;;20.30;61.90;;;;;;5012335;28;20515;-30
2023/05/25 13:09:28;;;;;;;10.90;2.97;;;;;;;;;;5012620;28;20137;-30
2023/05/25 13:11:55;;;;;;;8.25;3.00;;;21.50;55.60;;;;;;5012651;28;20053;-30